createdAt,value
2022-10-22T00:00:02.836Z,100.00
2022-10-22T00:02:29.582Z,100.00
2022-10-22T00:04:57.265Z,100.00
2022-10-22T00:07:24.590Z,100.00
2022-10-22T00:09:51.358Z,99.58
2022-10-22T00:12:19.033Z,99.18
2022-10-22T00:14:46.131Z,99.00
2022-10-22T00:17:13.243Z,98.35
2022-10-22T00:19:40.416Z,97.24
2022-10-22T00:22:08.741Z,98.00
2022-10-22T00:24:37.805Z,97.46
2022-10-22T00:27:05.285Z,97.91
2022-10-22T00:29:32.528Z,96.93
2022-10-22T00:31:59.287Z,96.01
2022-10-22T00:34:26.217Z,94.81
2022-10-22T00:36:53.440Z,94.89
2022-10-22T00:39:22.640Z,95.38
2022-10-22T00:41:51.229Z,94.85
2022-10-22T00:44:55.595Z,93.84
2022-10-22T00:47:24.033Z,92.98
2022-10-22T00:49:52.102Z,93.29
2022-10-22T00:52:19.539Z,93.40
2022-10-22T00:54:46.301Z,92.67
2022-10-22T00:57:13.203Z,92.81
2022-10-22T00:59:40.104Z,92.31
2022-10-22T01:02:06.809Z,92.40
2022-10-22T01:04:33.454Z,92.15
2022-10-22T01:07:00.319Z,91.49
2022-10-22T01:09:29.869Z,91.47
2022-10-22T01:12:15.452Z,90.99
2022-10-22T01:15:23.893Z,90.17
2022-10-22T01:18:12.647Z,91.12
2022-10-22T01:20:39.236Z,91.84
2022-10-22T01:23:08.808Z,92.90
2022-10-22T01:25:50.915Z,92.71
2022-10-22T01:28:39.048Z,91.93
2022-10-22T01:31:08.019Z,91.73
2022-10-22T01:33:35.774Z,92.31
2022-10-22T01:36:04.776Z,92.23
2022-10-22T01:38:32.781Z,92.86
2022-10-22T01:41:00.498Z,93.19
2022-10-22T01:43:27.422Z,93.89
2022-10-22T01:46:01.417Z,93.76
2022-10-22T01:48:34.111Z,93.81
2022-10-22T01:51:21.566Z,94.01
2022-10-22T01:53:58.474Z,94.26
2022-10-22T01:56:36.345Z,92.87
2022-10-22T01:59:06.102Z,92.37
2022-10-22T02:01:46.751Z,92.01
2022-10-22T02:04:26.862Z,91.77
2022-10-22T02:06:56.266Z,90.81
2022-10-22T02:09:25.486Z,90.64
2022-10-22T02:11:52.697Z,90.97
2022-10-22T02:14:20.027Z,90.65
2022-10-22T02:16:49.618Z,90.20
2022-10-22T02:19:53.601Z,90.61
2022-10-22T02:22:20.688Z,89.91
2022-10-22T02:24:49.337Z,88.94
2022-10-22T02:27:30.016Z,87.93
2022-10-22T02:30:07.537Z,87.83
2022-10-22T02:32:57.927Z,87.68
2022-10-22T02:35:26.824Z,86.52
2022-10-22T02:37:56.285Z,85.80
2022-10-22T02:40:23.214Z,86.03
2022-10-22T02:42:51.255Z,85.29
2022-10-22T02:45:19.624Z,85.23
2022-10-22T02:47:47.162Z,84.06
2022-10-22T02:50:14.379Z,83.05
2022-10-22T02:52:41.492Z,83.07
2022-10-22T02:55:08.739Z,82.64
2022-10-22T02:57:35.583Z,82.13
2022-10-22T03:00:02.380Z,82.27
2022-10-22T03:02:29.175Z,82.14
2022-10-22T03:04:55.861Z,81.42
2022-10-22T03:07:22.597Z,82.78
2022-10-22T03:09:49.225Z,82.63
2022-10-22T03:12:15.962Z,83.16
2022-10-22T03:14:42.740Z,82.60
2022-10-22T03:17:09.653Z,83.58
2022-10-22T03:19:36.425Z,83.33
2022-10-22T03:22:11.118Z,83.03
2022-10-22T03:24:44.824Z,83.33
2022-10-22T03:27:14.641Z,84.17
2022-10-22T03:29:42.572Z,84.84
2022-10-22T03:32:09.439Z,85.14
2022-10-22T03:34:36.832Z,85.01
2022-10-22T03:37:03.594Z,85.41
2022-10-22T03:39:32.973Z,85.43
2022-10-22T03:42:00.280Z,84.54
2022-10-22T03:44:27.688Z,84.33
2022-10-22T03:46:58.626Z,84.51
2022-10-22T03:49:28.547Z,84.38
2022-10-22T03:51:55.281Z,83.52
2022-10-22T03:54:21.973Z,83.66
2022-10-22T03:56:48.679Z,83.82
2022-10-22T03:59:15.679Z,83.25
2022-10-22T04:01:42.473Z,82.71
2022-10-22T04:04:09.231Z,82.69
2022-10-22T04:06:36.037Z,81.98
2022-10-22T04:09:02.972Z,82.25
2022-10-22T04:11:30.037Z,81.42
2022-10-22T04:13:56.812Z,81.08
2022-10-22T04:16:26.197Z,80.44
2022-10-22T04:18:55.426Z,79.55
2022-10-22T04:21:22.496Z,79.57
2022-10-22T04:23:51.201Z,79.29
2022-10-22T04:26:19.578Z,78.93
2022-10-22T04:28:47.493Z,78.82
2022-10-22T04:31:17.046Z,78.56
2022-10-22T04:33:43.782Z,78.37
2022-10-22T04:36:16.436Z,78.11
2022-10-22T04:38:44.745Z,78.25
2022-10-22T04:41:17.178Z,77.91
2022-10-22T04:43:44.557Z,78.08
2022-10-22T04:46:12.967Z,78.94
2022-10-22T04:48:41.113Z,78.91
2022-10-22T04:51:09.360Z,79.84
2022-10-22T04:53:36.506Z,80.01
2022-10-22T04:56:25.125Z,80.45
2022-10-22T04:59:06.573Z,80.57
2022-10-22T05:01:43.490Z,80.49
2022-10-22T05:04:15.611Z,80.70
2022-10-22T05:06:42.718Z,81.17
2022-10-22T05:09:13.732Z,80.94
2022-10-22T05:11:45.564Z,82.11
2022-10-22T05:14:12.892Z,82.23
2022-10-22T05:16:39.710Z,82.34
2022-10-22T05:19:07.971Z,82.90
2022-10-22T05:21:35.150Z,83.23
2022-10-22T05:24:02.146Z,83.49
2022-10-22T05:26:29.631Z,82.96
2022-10-22T05:28:56.933Z,82.97
2022-10-22T05:31:24.214Z,84.18
2022-10-22T05:33:50.936Z,84.30
2022-10-22T05:36:21.363Z,84.64
2022-10-22T05:38:50.039Z,84.33
2022-10-22T05:41:19.893Z,84.26
2022-10-22T05:43:47.437Z,83.92
2022-10-22T05:46:21.979Z,82.98
2022-10-22T05:48:53.445Z,82.73
2022-10-22T05:51:20.874Z,82.45
2022-10-22T05:53:53.321Z,82.01
2022-10-22T05:56:20.252Z,82.08
2022-10-22T05:58:47.489Z,82.01
2022-10-22T06:01:23.356Z,81.14
2022-10-22T06:03:53.166Z,81.18
2022-10-22T06:06:24.558Z,81.07
2022-10-22T06:08:53.579Z,81.13
2022-10-22T06:11:22.675Z,80.51
2022-10-22T06:13:51.271Z,80.45
2022-10-22T06:16:18.229Z,80.46
2022-10-22T06:18:44.994Z,80.92
2022-10-22T06:21:13.977Z,81.23
2022-10-22T06:23:41.494Z,80.88
2022-10-22T06:26:09.169Z,80.65
2022-10-22T06:28:36.403Z,79.13
2022-10-22T06:31:04.535Z,79.08
2022-10-22T06:33:33.485Z,78.57
2022-10-22T06:36:08.049Z,78.74
2022-10-22T06:38:34.949Z,78.79
2022-10-22T06:41:07.394Z,78.47
2022-10-22T06:43:34.370Z,78.52
2022-10-22T06:46:07.568Z,78.62
2022-10-22T06:48:36.219Z,77.73
2022-10-22T06:51:05.603Z,77.71
2022-10-22T06:53:32.530Z,77.27
2022-10-22T06:55:59.267Z,76.92
2022-10-22T06:58:26.010Z,76.64
2022-10-22T07:01:02.624Z,75.54
2022-10-22T07:03:29.365Z,75.97
2022-10-22T07:06:01.144Z,76.01
2022-10-22T07:08:28.628Z,76.05
2022-10-22T07:10:55.957Z,76.05
2022-10-22T07:13:23.222Z,76.19
2022-10-22T07:15:54.980Z,76.32
2022-10-22T07:18:22.768Z,76.47
2022-10-22T07:20:50.086Z,75.92
2022-10-22T07:23:17.401Z,75.61
2022-10-22T07:25:44.156Z,75.27
2022-10-22T07:28:11.574Z,73.72
2022-10-22T07:30:39.396Z,62.84
2022-10-22T07:33:06.698Z,58.85
2022-10-22T07:35:34.583Z,52.02
2022-10-22T07:38:01.790Z,56.87
2022-10-22T07:40:28.449Z,49.70
2022-10-22T07:42:55.169Z,48.30
2022-10-22T07:45:21.920Z,58.84
2022-10-22T07:47:48.950Z,63.15
2022-10-22T07:50:16.596Z,64.58
2022-10-22T07:52:43.812Z,65.83
2022-10-22T07:55:10.941Z,66.06
2022-10-22T07:57:37.768Z,66.36
2022-10-22T08:00:06.413Z,64.94
2022-10-22T08:02:33.286Z,65.96
2022-10-22T08:05:00.100Z,64.39
2022-10-22T08:09:58.572Z,62.24
2022-10-22T08:12:25.616Z,60.94
2022-10-22T08:14:52.317Z,60.53
2022-10-22T08:17:19.029Z,48.49
2022-10-22T08:19:45.778Z,40.61
2022-10-22T08:22:12.500Z,37.19
2022-10-22T08:24:39.301Z,38.58
2022-10-22T08:27:06.345Z,40.15
2022-10-22T08:29:33.031Z,39.00
2022-10-22T08:31:59.749Z,41.87
2022-10-22T08:34:26.495Z,41.88
2022-10-22T08:36:53.146Z,40.89
2022-10-22T08:39:19.942Z,41.16
2022-10-22T08:42:14.095Z,41.15
2022-10-22T08:45:05.292Z,42.43
2022-10-22T08:47:47.212Z,44.23
2022-10-22T08:50:24.320Z,43.96
2022-10-22T08:52:58.181Z,45.40
2022-10-22T08:55:26.104Z,44.23
2022-10-22T08:58:18.984Z,45.19
2022-10-22T09:01:19.973Z,45.88
2022-10-22T09:03:59.511Z,47.56
2022-10-22T09:06:29.564Z,46.28
2022-10-22T09:08:58.874Z,44.83
2022-10-22T09:11:57.937Z,45.17
2022-10-22T09:14:26.054Z,44.97
2022-10-22T09:17:18.554Z,43.26
2022-10-22T09:19:45.172Z,43.15
2022-10-22T09:22:36.345Z,42.59
2022-10-22T09:25:21.937Z,42.29
2022-10-22T09:27:49.878Z,42.65
2022-10-22T09:30:22.430Z,42.89
2022-10-22T09:33:14.100Z,44.07
2022-10-22T09:35:52.620Z,44.09
2022-10-22T09:38:21.967Z,45.12
2022-10-22T09:40:55.096Z,44.21
2022-10-22T09:43:22.672Z,45.89
2022-10-22T09:45:57.936Z,45.70
2022-10-22T09:48:35.228Z,46.09
2022-10-22T09:51:04.957Z,45.48
2022-10-22T09:53:37.321Z,46.40
2022-10-22T09:56:10.281Z,45.85
2022-10-22T09:58:45.430Z,45.70
2022-10-22T10:01:38.850Z,47.01
2022-10-22T10:04:10.008Z,48.06
2022-10-22T10:06:41.240Z,47.47
2022-10-22T10:09:28.175Z,48.30
2022-10-22T10:12:16.325Z,48.53
2022-10-22T10:15:03.434Z,49.06
2022-10-22T10:17:51.206Z,49.16
2022-10-22T10:20:29.705Z,49.97
2022-10-22T10:23:02.559Z,50.24
2022-10-22T10:25:35.272Z,49.70
2022-10-22T10:28:09.989Z,50.93
2022-10-22T10:30:45.701Z,52.67
2022-10-22T10:33:31.587Z,53.97
2022-10-22T10:36:03.203Z,53.14
2022-10-22T10:38:55.894Z,53.36
2022-10-22T10:41:25.317Z,51.92
2022-10-22T10:44:30.657Z,53.22
2022-10-22T10:47:09.956Z,52.80
2022-10-22T10:49:37.132Z,52.61
2022-10-22T10:52:54.538Z,53.03
2022-10-22T10:55:46.495Z,53.46
2022-10-22T10:58:25.469Z,53.99
2022-10-22T11:01:24.741Z,54.47
2022-10-22T11:04:22.165Z,54.04
2022-10-22T11:06:50.693Z,53.49
2022-10-22T11:09:32.548Z,53.91
2022-10-22T11:12:12.473Z,54.81
2022-10-22T11:15:03.634Z,54.54
2022-10-22T11:17:39.074Z,56.50
2022-10-22T11:20:21.000Z,57.93
2022-10-22T11:23:24.135Z,58.43
2022-10-22T11:25:51.577Z,59.46
2022-10-22T11:28:34.038Z,60.75
2022-10-22T11:31:10.573Z,60.65
2022-10-22T11:34:00.532Z,60.21
2022-10-22T11:36:33.171Z,59.58
2022-10-22T11:39:02.638Z,59.59
2022-10-22T11:41:31.060Z,60.26
2022-10-22T11:44:19.675Z,60.75
2022-10-22T11:46:55.295Z,59.75
2022-10-22T11:49:43.165Z,58.81
2022-10-22T11:52:35.840Z,59.22
2022-10-22T11:55:04.113Z,59.25
2022-10-22T11:57:38.733Z,59.25
2022-10-22T12:00:46.343Z,61.16
2022-10-22T12:03:23.912Z,61.19
2022-10-22T12:06:15.811Z,62.10
2022-10-22T12:08:54.548Z,61.84
2022-10-22T12:11:24.312Z,61.19
2022-10-22T12:14:01.619Z,61.71
2022-10-22T12:16:56.101Z,62.20
2022-10-22T12:19:23.493Z,61.99
2022-10-22T12:22:10.319Z,62.09
2022-10-22T12:24:40.791Z,64.26
2022-10-22T12:27:38.399Z,64.76
2022-10-22T12:30:35.096Z,65.54
2022-10-22T12:33:04.532Z,67.00
2022-10-22T12:35:35.788Z,68.59
2022-10-22T12:38:05.377Z,69.19
2022-10-22T12:40:35.558Z,69.62
2022-10-22T12:43:11.964Z,69.99
2022-10-22T12:45:39.694Z,70.48
2022-10-22T12:48:15.885Z,71.15
2022-10-22T12:50:45.503Z,71.72
2022-10-22T12:53:20.886Z,71.24
2022-10-22T12:55:50.223Z,71.51
2022-10-22T12:58:29.040Z,71.13
2022-10-22T13:00:59.264Z,71.32
2022-10-22T13:03:42.656Z,71.08
2022-10-22T13:06:19.420Z,70.76
2022-10-22T13:08:55.473Z,70.95
2022-10-22T13:11:22.206Z,71.57
2022-10-22T13:13:48.920Z,71.91
2022-10-22T13:16:24.560Z,72.61
2022-10-22T13:18:53.126Z,73.75
2022-10-22T13:21:24.817Z,75.64
2022-10-22T13:24:00.273Z,76.72
2022-10-22T13:26:36.192Z,77.43
2022-10-22T13:29:10.551Z,77.90
2022-10-22T13:31:44.955Z,79.21
2022-10-22T13:34:19.726Z,81.03
2022-10-22T13:36:47.042Z,82.93
2022-10-22T13:39:19.041Z,85.69
2022-10-22T13:41:46.162Z,88.29
2022-10-22T13:44:12.877Z,91.04
2022-10-22T13:46:43.004Z,92.66
2022-10-22T13:49:22.844Z,94.93
2022-10-22T13:51:51.014Z,96.67
2022-10-22T13:54:24.189Z,100.00
2022-10-22T13:56:50.945Z,100.00
2022-10-22T13:59:21.186Z,100.00
2022-10-22T14:01:50.552Z,100.00
2022-10-22T14:04:17.257Z,100.00
2022-10-22T14:06:44.121Z,100.00
2022-10-22T14:09:15.285Z,100.00
2022-10-22T14:11:43.198Z,100.00
2022-10-22T14:14:14.361Z,100.00
2022-10-22T14:16:41.762Z,100.00
2022-10-22T14:19:14.626Z,100.00
2022-10-22T14:21:41.335Z,100.00
2022-10-22T14:24:12.985Z,100.00
2022-10-22T14:26:40.665Z,100.00
2022-10-22T14:29:09.898Z,100.00
2022-10-22T14:31:44.584Z,100.00
2022-10-22T14:34:13.598Z,100.00
2022-10-22T14:36:40.558Z,100.00
2022-10-22T14:39:07.358Z,100.00
2022-10-22T14:41:34.242Z,100.00
2022-10-22T14:44:01.791Z,100.00
2022-10-22T14:46:28.598Z,100.00
2022-10-22T14:48:55.290Z,100.00
2022-10-22T14:51:23.245Z,100.00
2022-10-22T14:53:50.135Z,100.00
2022-10-22T14:56:21.683Z,100.00
2022-10-22T14:58:48.524Z,100.00
2022-10-22T15:01:15.307Z,100.00
2022-10-22T15:03:42.361Z,100.00
2022-10-22T15:06:09.082Z,100.00
2022-10-22T15:08:35.908Z,100.00
2022-10-22T15:11:08.078Z,100.00
2022-10-22T15:13:35.876Z,100.00
2022-10-22T15:16:07.024Z,100.00
2022-10-22T15:18:33.868Z,100.00
2022-10-22T15:21:03.846Z,100.00
2022-10-22T15:23:31.191Z,100.00
2022-10-22T15:25:58.353Z,100.00
2022-10-22T15:28:25.323Z,100.00
2022-10-22T15:30:56.663Z,100.00
2022-10-22T15:33:23.992Z,100.00
2022-10-22T15:35:50.855Z,100.00
2022-10-22T15:38:18.006Z,100.00
2022-10-22T15:40:45.101Z,100.00
2022-10-22T15:43:12.583Z,100.00
2022-10-22T15:45:39.336Z,100.00
2022-10-22T15:48:06.391Z,100.00
2022-10-22T15:50:38.145Z,100.00
2022-10-22T15:53:05.858Z,100.00
2022-10-22T15:55:32.773Z,100.00
2022-10-22T15:58:01.949Z,100.00
2022-10-22T16:00:31.199Z,100.00
2022-10-22T16:02:57.983Z,100.00
2022-10-22T16:05:25.180Z,100.00
2022-10-22T16:07:55.867Z,100.00
2022-10-22T16:10:22.922Z,100.00
2022-10-22T16:12:51.930Z,100.00
2022-10-22T16:15:18.571Z,100.00
2022-10-22T16:17:45.355Z,100.00
2022-10-22T16:22:39.698Z,100.00
2022-10-22T16:25:06.925Z,100.00
2022-10-22T16:27:33.934Z,100.00
2022-10-22T16:30:00.851Z,100.00
2022-10-22T16:32:27.644Z,100.00
2022-10-22T16:34:54.357Z,100.00
2022-10-22T16:37:21.023Z,100.00
2022-10-22T16:39:47.809Z,100.00
2022-10-22T16:42:15.197Z,100.00
2022-10-22T16:44:41.974Z,100.00
2022-10-22T16:47:09.161Z,100.00
2022-10-22T16:49:35.827Z,100.00
2022-10-22T16:52:02.712Z,100.00
2022-10-22T16:54:29.552Z,100.00
2022-10-22T16:56:56.713Z,100.00
2022-10-22T16:59:23.739Z,100.00
2022-10-22T17:01:50.587Z,100.00
2022-10-22T17:04:18.040Z,100.00
2022-10-22T17:06:45.690Z,100.00
2022-10-22T17:09:12.846Z,100.00
2022-10-22T17:11:42.498Z,100.00
2022-10-22T17:14:11.262Z,100.00
2022-10-22T17:16:38.548Z,100.00
2022-10-22T17:19:06.163Z,100.00
2022-10-22T17:21:34.213Z,100.00
2022-10-22T17:24:01.083Z,100.00
2022-10-22T17:29:13.816Z,100.00
2022-10-22T17:31:41.823Z,100.00
2022-10-22T17:34:15.073Z,100.00
2022-10-22T17:36:43.377Z,100.00
2022-10-22T17:39:16.633Z,100.00
2022-10-22T17:41:43.955Z,100.00
2022-10-22T17:44:12.868Z,100.00
2022-10-22T17:46:39.969Z,100.00
2022-10-22T17:49:15.952Z,100.00
2022-10-22T17:51:43.387Z,100.00
2022-10-22T17:54:10.822Z,100.00
2022-10-22T17:56:40.599Z,100.00
2022-10-22T17:59:09.059Z,100.00
2022-10-22T18:01:39.743Z,100.00
2022-10-22T18:04:08.469Z,100.00
2022-10-22T18:06:35.930Z,100.00
2022-10-22T18:09:07.953Z,100.00
2022-10-22T18:11:37.127Z,100.00
2022-10-22T18:14:05.060Z,100.00
2022-10-22T18:16:32.625Z,100.00
2022-10-22T18:19:00.774Z,100.00
2022-10-22T18:21:31.721Z,100.00
2022-10-22T18:23:59.994Z,100.00
2022-10-22T18:26:27.376Z,100.00
2022-10-22T18:28:55.517Z,100.00
2022-10-22T18:31:24.696Z,100.00
2022-10-22T18:33:55.610Z,100.00
2022-10-22T18:36:27.071Z,100.00
2022-10-22T18:39:02.063Z,100.00
2022-10-22T18:41:33.914Z,100.00
2022-10-22T18:44:06.235Z,100.00
2022-10-22T18:46:39.885Z,100.00
2022-10-22T18:49:07.950Z,100.00
2022-10-22T18:51:36.222Z,100.00
2022-10-22T18:54:05.778Z,100.00
2022-10-22T18:56:45.981Z,100.00
2022-10-22T18:59:17.032Z,100.00
2022-10-22T19:01:43.839Z,100.00
2022-10-22T19:04:11.340Z,100.00
2022-10-22T19:06:39.778Z,100.00
2022-10-22T19:09:10.102Z,100.00
2022-10-22T19:11:37.408Z,100.00
2022-10-22T19:14:04.231Z,100.00
2022-10-22T19:16:31.318Z,100.00
2022-10-22T19:19:04.790Z,100.00
2022-10-22T19:21:32.456Z,100.00
2022-10-22T19:24:01.172Z,100.00
2022-10-22T19:26:29.340Z,100.00
2022-10-22T19:28:57.396Z,100.00
2022-10-22T19:31:25.547Z,100.00
2022-10-22T19:33:56.330Z,100.00
2022-10-22T19:36:25.574Z,100.00
2022-10-22T19:38:52.585Z,100.00
2022-10-22T19:41:21.560Z,100.00
2022-10-22T19:43:50.925Z,100.00
2022-10-22T19:46:18.957Z,100.00
2022-10-22T19:51:20.921Z,100.00
2022-10-22T19:53:49.027Z,100.00
2022-10-22T19:56:20.622Z,100.00
2022-10-22T19:58:47.355Z,100.00
2022-10-22T20:01:15.944Z,100.00
2022-10-22T20:03:45.078Z,100.00
2022-10-22T20:06:12.575Z,100.00
2022-10-22T20:08:39.654Z,100.00
2022-10-22T20:11:07.615Z,100.00
2022-10-22T20:13:35.187Z,100.00
2022-10-22T20:16:02.315Z,100.00
2022-10-22T20:18:29.468Z,100.00
2022-10-22T20:20:56.566Z,100.00
2022-10-22T20:23:23.360Z,100.00
2022-10-22T20:25:50.323Z,100.00
2022-10-22T20:28:17.182Z,100.00
2022-10-22T20:30:44.477Z,100.00
2022-10-22T20:33:11.600Z,100.00
2022-10-22T20:35:39.738Z,100.00
2022-10-22T20:38:07.950Z,100.00
2022-10-22T20:40:34.652Z,100.00
2022-10-22T20:43:01.944Z,100.00
2022-10-22T20:45:29.052Z,100.00
2022-10-22T20:48:01.985Z,100.00
2022-10-22T20:50:31.483Z,100.00
2022-10-22T20:52:59.676Z,100.00
2022-10-22T20:55:29.858Z,100.00
2022-10-22T20:57:56.905Z,100.00
2022-10-22T21:00:23.574Z,100.00
2022-10-22T21:02:50.403Z,100.00
2022-10-22T21:05:17.514Z,100.00
2022-10-22T21:07:44.420Z,100.00
2022-10-22T21:10:11.479Z,100.00
2022-10-22T21:12:42.039Z,100.00
2022-10-22T21:15:11.774Z,100.00
2022-10-22T21:17:40.434Z,100.00
2022-10-22T21:20:07.208Z,100.00
2022-10-22T21:22:33.820Z,100.00
2022-10-22T21:25:00.458Z,100.00
2022-10-22T21:27:27.061Z,100.00
2022-10-22T21:29:53.675Z,100.00
2022-10-22T21:32:20.177Z,100.00
2022-10-22T21:34:46.756Z,100.00
2022-10-22T21:37:13.332Z,100.00
2022-10-22T21:39:42.111Z,100.00
2022-10-22T21:42:09.017Z,100.00
2022-10-22T21:44:35.561Z,100.00
2022-10-22T21:47:02.883Z,100.00
2022-10-22T21:49:29.460Z,100.00
2022-10-22T21:51:55.987Z,100.00
2022-10-22T21:54:22.576Z,100.00
2022-10-22T21:56:50.238Z,100.00
2022-10-22T21:59:16.838Z,100.00
2022-10-22T22:01:43.448Z,100.00
2022-10-22T22:04:10.057Z,100.00
2022-10-22T22:06:36.657Z,100.00
2022-10-22T22:09:04.088Z,100.00
2022-10-22T22:11:31.045Z,100.00
2022-10-22T22:13:58.243Z,100.00
2022-10-22T22:16:28.332Z,100.00
2022-10-22T22:18:56.193Z,100.00
2022-10-22T22:21:22.887Z,100.00
2022-10-22T22:23:50.439Z,100.00
2022-10-22T22:26:18.909Z,100.00
2022-10-22T22:28:45.472Z,100.00
2022-10-22T22:31:16.321Z,100.00
2022-10-22T22:33:43.309Z,100.00
2022-10-22T22:36:10.072Z,100.00
2022-10-22T22:38:38.252Z,100.00
2022-10-22T22:41:04.966Z,100.00
2022-10-22T22:43:31.619Z,100.00
2022-10-22T22:46:05.762Z,100.00
2022-10-22T22:48:32.403Z,100.00
2022-10-22T22:51:01.944Z,100.00
2022-10-22T22:53:28.766Z,100.00
2022-10-22T22:56:05.809Z,100.00
2022-10-22T22:58:32.453Z,100.00
2022-10-22T23:01:17.804Z,100.00
2022-10-22T23:03:45.694Z,100.00
2022-10-22T23:06:12.838Z,100.00
2022-10-22T23:08:39.795Z,100.00
2022-10-22T23:11:07.846Z,100.00
2022-10-22T23:13:35.375Z,100.00
2022-10-22T23:16:08.526Z,100.00
2022-10-22T23:18:35.605Z,100.00
2022-10-22T23:21:06.131Z,100.00
2022-10-22T23:23:33.567Z,100.00
2022-10-22T23:26:00.653Z,100.00
2022-10-22T23:28:27.490Z,100.00
2022-10-22T23:30:54.078Z,100.00
2022-10-22T23:33:20.725Z,100.00
2022-10-22T23:35:47.343Z,100.00
2022-10-22T23:38:13.995Z,100.00
2022-10-22T23:40:40.685Z,100.00
2022-10-22T23:43:07.247Z,100.00
2022-10-22T23:45:34.481Z,100.00
2022-10-22T23:48:01.173Z,100.00
2022-10-22T23:50:27.804Z,100.00
2022-10-22T23:52:54.378Z,100.00
2022-10-22T23:55:21.002Z,100.00
2022-10-22T23:57:47.633Z,100.00
